Time;durP1;ratioP1;P1;durP2;ratioP2;P2;SDS_P1;SDS_P2;PMS_P1;PMS_P2;Temp;Humidity;BMP_temperature;BMP_pressure;BME280_temperature;BME280_humidity;BME280_pressure;Samples;Min_cycle;Max_cycle;Signal;HPM_P1;HPM_P2
2023/05/23 00:02:06;;;;;;;4.88;3.30;;;21.90;71.50;;;;;;5088842;28;20413;-73
2023/05/23 00:04:35;;;;;;;3.42;2.00;;;21.90;71.50;;;;;;5075412;28;20114;-73
2023/05/23 00:07:02;;;;;;;3.80;3.28;;;21.90;71.50;;;;;;5086953;28;20413;-73
2023/05/23 00:09:29;;;;;;;3.92;3.10;;;21.90;71.50;;;;;;5086092;28;20056;-72
2023/05/23 00:11:58;;;;;;;3.92;3.03;;;21.90;71.50;;;;;;5088594;28;20044;-73
2023/05/23 00:14:25;;;;;;;4.18;3.00;;;21.90;71.40;;;;;;5085796;28;20139;-73
2023/05/23 00:16:53;;;;;;;4.55;3.45;;;21.90;71.50;;;;;;5089182;28;20052;-73
2023/05/23 00:19:20;;;;;;;4.13;3.03;;;21.90;71.40;;;;;;5094409;28;20427;-73
2023/05/23 00:21:48;;;;;;;3.30;2.75;;;21.90;71.50;;;;;;5082242;28;20092;-73
2023/05/23 00:24:17;;;;;;;3.72;3.20;;;21.90;71.50;;;;;;5083460;28;20059;-73
2023/05/23 00:26:44;;;;;;;3.60;2.35;;;21.90;71.50;;;;;;5086340;28;20060;-73
2023/05/23 00:29:15;;;;;;;4.50;3.28;;;21.90;71.50;;;;;;5081197;28;20074;-73
2023/05/23 00:31:45;;;;;;;3.88;3.17;;;21.90;71.50;;;;;;5086219;28;20554;-73
2023/05/23 00:34:12;;;;;;;3.80;3.13;;;21.80;71.40;;;;;;5076509;28;20044;-73
2023/05/23 00:36:40;;;;;;;3.55;3.17;;;21.90;71.50;;;;;;5084726;28;20036;-73
2023/05/23 00:39:07;;;;;;;3.65;3.05;;;21.90;71.50;;;;;;5088155;28;20048;-73
2023/05/23 00:41:35;;;;;;;3.47;2.25;;;21.90;71.50;;;;;;5086509;28;20052;-73
2023/05/23 00:44:02;;;;;;;4.18;2.20;;;21.90;71.50;;;;;;5086560;28;20147;-73
2023/05/23 00:46:31;;;;;;;3.22;1.85;;;21.90;71.50;;;;;;5087872;28;20495;-73
2023/05/23 00:48:58;;;;;;;3.30;2.42;;;21.90;71.50;;;;;;5082074;28;20064;-73
2023/05/23 00:51:26;;;;;;;3.10;2.30;;;21.90;71.50;;;;;;5088859;28;20056;-73
2023/05/23 00:53:53;;;;;;;3.30;2.42;;;21.90;71.50;;;;;;5088088;28;20594;-73
2023/05/23 00:56:21;;;;;;;3.55;2.22;;;21.90;71.50;;;;;;5084167;28;20056;-72
2023/05/23 00:58:48;;;;;;;3.88;3.47;;;21.90;71.50;;;;;;5088127;28;20040;-73
2023/05/23 01:01:16;;;;;;;4.60;3.30;;;21.80;71.40;;;;;;5085004;28;20056;-72
2023/05/23 01:03:47;;;;;;;4.15;3.75;;;21.80;71.50;;;;;;5082648;28;20048;-73
2023/05/23 01:06:14;;;;;;;3.33;1.83;;;21.90;71.50;;;;;;5086302;28;20052;-73
2023/05/23 01:08:42;;;;;;;4.28;2.08;;;21.80;71.40;;;;;;5087600;28;20047;-73
2023/05/23 01:11:29;;;;;;;4.05;3.00;;;21.80;71.50;;;;;;5088546;28;20052;-73
2023/05/23 01:14:01;;;;;;;4.35;2.05;;;21.80;71.40;;;;;;5081808;28;20052;-73
2023/05/23 01:16:36;;;;;;;3.45;2.08;;;21.80;71.50;;;;;;5088246;28;20044;-73
2023/05/23 01:19:17;;;;;;;4.10;2.15;;;21.80;71.50;;;;;;5080816;28;20049;-73
2023/05/23 01:21:53;;;;;;;3.78;2.97;;;21.80;71.40;;;;;;5086013;28;20051;-73
2023/05/23 01:24:35;;;;;;;3.83;2.10;;;21.80;71.50;;;;;;5088778;28;20059;-73
2023/05/23 01:27:10;;;;;;;3.55;1.98;;;21.80;71.40;;;;;;5076885;28;20499;-72
2023/05/23 01:29:44;;;;;;;4.00;2.22;;;21.80;71.50;;;;;;5079438;28;20680;-73
2023/05/23 01:32:14;;;;;;;4.88;3.17;;;21.80;71.50;;;;;;5083549;28;20048;-72
2023/05/23 01:34:42;;;;;;;3.65;2.10;;;21.80;71.40;;;;;;5080477;28;20169;-73
2023/05/23 01:37:10;;;;;;;3.28;2.30;;;21.80;71.50;;;;;;5087112;28;20055;-73
2023/05/23 01:39:37;;;;;;;5.10;2.70;;;21.80;71.40;;;;;;5085270;28;20048;-73
2023/05/23 01:42:05;;;;;;;4.20;3.33;;;21.80;71.40;;;;;;5089133;28;20044;-73
2023/05/23 01:44:33;;;;;;;4.82;2.40;;;21.80;71.40;;;;;;5087509;28;20455;-73
2023/05/23 01:47:02;;;;;;;3.00;2.20;;;21.80;71.40;;;;;;5088020;28;20051;-73
2023/05/23 01:49:29;;;;;;;;;;;21.80;71.40;;;;;;5077774;28;20059;-73
2023/05/23 01:51:56;;;;;;;4.03;2.97;;;21.80;71.40;;;;;;5086966;28;19931;-73
2023/05/23 01:54:24;;;;;;;5.15;2.05;;;21.80;71.40;;;;;;5078897;28;20036;-73
2023/05/23 01:56:51;;;;;;;5.45;3.30;;;21.80;71.40;;;;;;5086431;28;20413;-73
2023/05/23 01:59:18;;;;;;;4.05;3.10;;;21.70;71.30;;;;;;5087256;28;20056;-73
2023/05/23 02:01:45;;;;;;;3.03;2.60;;;21.80;71.40;;;;;;5081758;28;20052;-73
2023/05/23 02:04:14;;;;;;;3.75;2.35;;;21.70;71.30;;;;;;5082159;28;20052;-73
2023/05/23 02:06:41;;;;;;;3.95;3.25;;;21.70;71.40;;;;;;5085605;28;20489;-72
2023/05/23 02:09:08;;;;;;;3.50;2.17;;;21.70;71.40;;;;;;5088383;28;20048;-73
2023/05/23 02:11:35;;;;;;;3.00;2.63;;;21.70;71.40;;;;;;5086403;28;20048;-72
2023/05/23 02:14:02;;;;;;;4.18;2.25;;;21.70;71.50;;;;;;5083562;28;20067;-72
2023/05/23 02:16:29;;;;;;;3.33;2.00;;;21.70;71.40;;;;;;5083362;28;20055;-73
2023/05/23 02:18:57;;;;;;;3.28;1.95;;;21.70;71.40;;;;;;5084997;28;20052;-73
2023/05/23 02:21:25;;;;;;;4.68;2.97;;;21.70;71.40;;;;;;5085285;28;20086;-73
2023/05/23 02:23:52;;;;;;;3.25;1.98;;;21.70;71.30;;;;;;5089263;28;20048;-73
2023/05/23 02:26:19;;;;;;;4.22;2.00;;;21.70;71.30;;;;;;5089914;28;20047;-73
2023/05/23 02:28:46;;;;;;;3.50;2.08;;;21.70;71.30;;;;;;5085509;28;20044;-74
2023/05/23 02:31:13;;;;;;;3.67;2.67;;;21.70;71.30;;;;;;5081826;28;20044;-73
2023/05/23 02:33:40;;;;;;;3.75;3.25;;;21.70;71.30;;;;;;5090447;28;20040;-73
2023/05/23 02:36:07;;;;;;;3.50;2.20;;;21.70;71.30;;;;;;5090620;28;20044;-73
2023/05/23 02:38:36;;;;;;;4.30;3.13;;;21.70;71.30;;;;;;5083635;28;20049;-73
2023/05/23 02:41:03;;;;;;;5.03;2.08;;;21.70;71.30;;;;;;5089455;28;20397;-73
2023/05/23 02:43:30;;;;;;;3.92;3.30;;;21.70;71.30;;;;;;5084098;28;20056;-73
2023/05/23 02:45:57;;;;;;;3.50;2.28;;;21.70;71.30;;;;;;5091642;28;20055;-73
2023/05/23 02:48:24;;;;;;;3.35;2.00;;;21.70;71.30;;;;;;5087479;28;20056;-73
2023/05/23 02:50:51;;;;;;;3.55;2.10;;;21.70;71.30;;;;;;5088360;28;20473;-73
2023/05/23 02:53:18;;;;;;;3.25;1.77;;;21.70;71.30;;;;;;5090716;28;20511;-73
2023/05/23 02:55:46;;;;;;;3.53;2.17;;;21.70;71.30;;;;;;5083569;28;20056;-73
2023/05/23 02:58:13;;;;;;;3.90;2.10;;;21.70;71.30;;;;;;5084274;28;20055;-73
2023/05/23 03:00:42;;;;;;;3.83;1.80;;;21.70;71.30;;;;;;5085949;28;20046;-73
2023/05/23 03:03:10;;;;;;;3.67;2.72;;;21.70;71.30;;;;;;5090792;28;20059;-73
2023/05/23 03:05:37;;;;;;;3.55;2.38;;;21.70;71.20;;;;;;5089273;28;20048;-73
2023/05/23 03:08:04;;;;;;;4.28;2.05;;;21.60;71.20;;;;;;5088769;28;20835;-73
2023/05/23 03:10:31;;;;;;;3.25;1.90;;;21.60;71.20;;;;;;5089703;28;20040;-73
2023/05/23 03:12:59;;;;;;;3.58;3.08;;;21.70;71.30;;;;;;5081837;28;20063;-73
2023/05/23 03:15:26;;;;;;;4.05;3.00;;;21.70;71.30;;;;;;5087716;28;20063;-72
2023/05/23 03:17:53;;;;;;;3.85;2.70;;;21.60;71.20;;;;;;5091311;28;20070;-73
2023/05/23 03:20:20;;;;;;;4.57;2.10;;;21.70;71.20;;;;;;5090016;28;20058;-73
2023/05/23 03:22:47;;;;;;;7.70;3.85;;;21.60;71.20;;;;;;5085794;28;20822;-73
2023/05/23 03:25:16;;;;;;;3.95;2.00;;;21.60;71.10;;;;;;5082078;28;20476;-73
2023/05/23 03:27:43;;;;;;;4.35;2.90;;;21.60;71.20;;;;;;5085091;28;20052;-71
2023/05/23 03:30:12;;;;;;;4.93;2.90;;;21.60;71.20;;;;;;5085043;28;20040;-73
2023/05/23 03:32:39;;;;;;;3.67;1.75;;;21.60;71.10;;;;;;5086350;28;20056;-73
2023/05/23 03:35:07;;;;;;;3.30;2.83;;;21.60;71.10;;;;;;5087991;28;20052;-73
2023/05/23 03:37:34;;;;;;;3.67;2.72;;;21.60;71.20;;;;;;5083480;28;20052;-72
2023/05/23 03:40:01;;;;;;;3.97;2.28;;;21.60;71.10;;;;;;5078962;28;20052;-73
2023/05/23 03:42:28;;;;;;;3.83;2.25;;;21.60;71.10;;;;;;5085509;28;20508;-74
2023/05/23 03:44:55;;;;;;;3.05;1.73;;;21.60;71.10;;;;;;5089327;28;20055;-72
2023/05/23 03:47:24;;;;;;;4.53;2.75;;;21.60;71.10;;;;;;5083512;28;20146;-73
2023/05/23 03:49:51;;;;;;;3.20;2.03;;;21.60;71.10;;;;;;5090563;28;20472;-73
2023/05/23 03:52:18;;;;;;;3.47;1.60;;;21.60;71.10;;;;;;5090784;28;20048;-73
2023/05/23 03:54:45;;;;;;;4.05;1.58;;;21.60;71.10;;;;;;5087215;28;20052;-73
2023/05/23 03:57:12;;;;;;;3.65;3.05;;;21.60;71.10;;;;;;5087003;28;20087;-73
2023/05/23 03:59:39;;;;;;;4.43;2.05;;;21.60;71.00;;;;;;5085846;28;20036;-73
2023/05/23 04:02:06;;;;;;;3.90;2.13;;;21.60;71.00;;;;;;5085951;28;20052;-73
2023/05/23 04:04:34;;;;;;;3.80;1.90;;;21.50;71.00;;;;;;5089132;28;20065;-73
2023/05/23 04:07:02;;;;;;;3.70;2.35;;;21.60;71.10;;;;;;5087472;28;20040;-73
2023/05/23 04:09:28;;;;;;;3.85;2.10;;;21.60;71.00;;;;;;5089092;28;20143;-73
2023/05/23 04:11:55;;;;;;;3.60;2.88;;;21.60;71.00;;;;;;5089017;28;20056;-73
2023/05/23 04:14:24;;;;;;;3.88;2.42;;;21.60;71.10;;;;;;5080393;28;20051;-73
2023/05/23 04:16:51;;;;;;;4.15;2.92;;;21.50;71.00;;;;;;5088194;28;20485;-73
2023/05/23 04:19:18;;;;;;;3.42;2.35;;;21.50;71.00;;;;;;5085907;28;20036;-73
2023/05/23 04:21:46;;;;;;;3.78;2.35;;;21.60;71.00;;;;;;5086518;28;20051;-73
2023/05/23 04:24:13;;;;;;;5.47;3.55;;;21.50;71.00;;;;;;5091098;28;20070;-73
2023/05/23 04:26:41;;;;;;;3.63;2.80;;;21.50;71.00;;;;;;5088732;28;20043;-72
2023/05/23 04:29:10;;;;;;;3.92;2.67;;;21.50;71.00;;;;;;5085577;28;20048;-73
2023/05/23 04:31:38;;;;;;;4.28;2.65;;;21.50;71.00;;;;;;5086343;28;20056;-73
2023/05/23 04:34:05;;;;;;;3.88;2.40;;;21.50;71.00;;;;;;5082689;28;20493;-74
2023/05/23 04:36:31;;;;;;;4.13;2.72;;;21.50;71.00;;;;;;5083183;28;20409;-73
2023/05/23 04:39:00;;;;;;;3.78;2.55;;;21.50;71.00;;;;;;5086997;28;20052;-72
2023/05/23 04:41:27;;;;;;;3.72;3.05;;;21.50;70.90;;;;;;5088435;28;20055;-73
2023/05/23 04:43:56;;;;;;;4.03;2.65;;;21.50;71.00;;;;;;5086273;28;20054;-73
2023/05/23 04:46:25;;;;;;;4.15;2.40;;;21.40;70.90;;;;;;5088590;28;20484;-73
2023/05/23 04:48:53;;;;;;;3.47;2.42;;;21.50;70.90;;;;;;5089413;28;20073;-73
2023/05/23 04:51:21;;;;;;;4.13;2.65;;;21.50;70.90;;;;;;5087996;28;20051;-73
2023/05/23 04:53:49;;;;;;;2.80;1.70;;;21.50;70.90;;;;;;5081427;28;20539;-73
2023/05/23 04:56:19;;;;;;;3.70;2.60;;;21.40;70.90;;;;;;5079477;28;20048;-73
2023/05/23 04:58:46;;;;;;;4.35;2.85;;;21.50;70.90;;;;;;5088959;28;20117;-73
2023/05/23 05:01:14;;;;;;;3.75;1.90;;;21.50;70.90;;;;;;5087368;28;20048;-73
2023/05/23 05:03:41;;;;;;;3.47;1.63;;;21.50;70.90;;;;;;5085081;28;20067;-73
2023/05/23 05:06:08;;;;;;;4.13;2.47;;;21.50;70.90;;;;;;5089942;28;20059;-73
2023/05/23 05:08:36;;;;;;;2.60;1.50;;;21.50;70.90;;;;;;5086962;28;20068;-73
2023/05/23 05:11:03;;;;;;;2.67;1.30;;;21.50;70.90;;;;;;5081458;28;20055;-73
2023/05/23 05:13:31;;;;;;;3.28;2.20;;;21.50;70.90;;;;;;5088717;28;20040;-73
2023/05/23 05:15:58;;;;;;;3.40;1.90;;;21.40;70.90;;;;;;5087167;28;20071;-72
2023/05/23 05:18:26;;;;;;;3.75;1.80;;;21.50;70.90;;;;;;5083550;28;20044;-73
2023/05/23 05:20:54;;;;;;;3.85;2.40;;;21.40;70.90;;;;;;5086715;28;20058;-73
2023/05/23 05:23:27;;;;;;;4.47;2.08;;;21.40;70.90;;;;;;5079778;28;20044;-73
2023/05/23 05:25:55;;;;;;;5.10;2.70;;;21.40;70.90;;;;;;5083045;28;20064;-73
2023/05/23 05:28:22;;;;;;;2.70;1.48;;;21.40;70.80;;;;;;5082013;28;20055;-74
2023/05/23 05:30:53;;;;;;;3.45;2.33;;;21.40;70.80;;;;;;5083008;28;20594;-73
2023/05/23 05:33:22;;;;;;;3.88;1.58;;;21.40;71.40;;;;;;5087534;28;20520;-73
2023/05/23 05:35:49;;;;;;;3.53;2.75;;;21.40;70.80;;;;;;5084461;28;20048;-73
2023/05/23 05:38:16;;;;;;;3.38;2.30;;;21.40;70.80;;;;;;5084208;28;20052;-73
2023/05/23 05:40:43;;;;;;;4.10;1.60;;;21.40;70.80;;;;;;5086773;28;20048;-73
2023/05/23 05:43:10;;;;;;;2.70;2.05;;;21.40;70.80;;;;;;5084158;28;20052;-73
2023/05/23 05:45:37;;;;;;;4.05;2.60;;;21.40;70.80;;;;;;5086391;28;20516;-72
2023/05/23 05:48:05;;;;;;;3.88;2.33;;;21.40;70.80;;;;;;5088750;28;20048;-73
2023/05/23 05:50:32;;;;;;;4.25;2.33;;;21.40;70.80;;;;;;5088352;28;20044;-73
2023/05/23 05:52:59;;;;;;;3.92;2.33;;;21.40;70.80;;;;;;5088313;28;20051;-73
2023/05/23 05:55:26;;;;;;;4.80;1.55;;;21.40;70.80;;;;;;5081176;28;20056;-72
2023/05/23 05:57:53;;;;;;;2.55;1.38;;;21.40;70.80;;;;;;5091436;28;20060;-73
2023/05/23 06:00:21;;;;;;;3.70;1.50;;;21.40;70.80;;;;;;5091186;28;20742;-73
2023/05/23 06:02:50;;;;;;;4.88;2.83;;;21.40;70.80;;;;;;5085898;28;20416;-73
2023/05/23 06:05:18;;;;;;;3.22;1.42;;;21.40;70.80;;;;;;5091132;28;20074;-73
2023/05/23 06:07:47;;;;;;;3.58;2.40;;;21.40;70.80;;;;;;5091261;28;20427;-73
2023/05/23 06:10:15;;;;;;;4.35;2.35;;;21.40;70.80;;;;;;5082548;28;20095;-73
2023/05/23 06:12:42;;;;;;;3.78;2.47;;;21.40;70.70;;;;;;5090208;28;20059;-73
2023/05/23 06:15:09;;;;;;;3.90;1.60;;;21.30;70.70;;;;;;5091442;28;20496;-73
2023/05/23 06:17:36;;;;;;;3.60;1.55;;;21.40;70.70;;;;;;5078226;28;20060;-73
2023/05/23 06:20:04;;;;;;;3.22;1.50;;;21.40;70.70;;;;;;5085777;28;20048;-74
2023/05/23 06:22:33;;;;;;;3.65;2.20;;;21.30;70.60;;;;;;5083493;28;20519;-74
2023/05/23 06:25:00;;;;;;;3.28;1.67;;;21.30;70.60;;;;;;5080419;28;20044;-73
2023/05/23 06:27:30;;;;;;;3.38;2.10;;;21.30;70.60;;;;;;5088660;28;20077;-73
2023/05/23 06:29:57;;;;;;;3.63;1.38;;;21.30;70.60;;;;;;5084760;28;20062;-73
2023/05/23 06:32:24;;;;;;;3.00;1.38;;;21.30;70.60;;;;;;5090293;28;20127;-73
2023/05/23 06:34:51;;;;;;;3.78;1.40;;;21.30;70.60;;;;;;5086094;28;20071;-73
2023/05/23 06:37:18;;;;;;;4.80;1.33;;;21.30;70.60;;;;;;5089692;28;20067;-73
2023/05/23 06:39:46;;;;;;;3.10;1.42;;;21.30;70.60;;;;;;5089840;28;20048;-74
2023/05/23 06:42:13;;;;;;;3.22;1.30;;;21.30;70.60;;;;;;5083685;28;20049;-73
2023/05/23 06:44:40;;;;;;;2.80;2.10;;;21.30;70.60;;;;;;5080825;28;20046;-74
2023/05/23 06:47:07;;;;;;;3.85;2.03;;;21.30;70.60;;;;;;5085754;28;20056;-73
2023/05/23 06:49:34;;;;;;;4.68;1.50;;;21.30;70.60;;;;;;5086931;28;20044;-73
2023/05/23 06:52:01;;;;;;;2.63;1.33;;;21.30;70.60;;;;;;5089578;28;20040;-73
2023/05/23 06:54:28;;;;;;;2.42;1.10;;;21.30;70.60;;;;;;5085047;28;20512;-73
2023/05/23 06:56:56;;;;;;;3.17;1.85;;;21.30;70.50;;;;;;5090472;28;20409;-73
2023/05/23 06:59:23;;;;;;;2.97;1.02;;;21.30;70.60;;;;;;5088333;28;20052;-73
2023/05/23 07:01:50;;;;;;;2.88;1.13;;;21.30;70.50;;;;;;5088657;28;20063;-73
2023/05/23 07:04:17;;;;;;;3.38;2.00;;;21.30;70.50;;;;;;5090088;28;20126;-74
2023/05/23 07:06:45;;;;;;;2.67;1.90;;;21.30;70.50;;;;;;5087064;28;20055;-74
2023/05/23 07:09:12;;;;;;;1.80;0.90;;;21.30;70.50;;;;;;5089387;28;20049;-73
2023/05/23 07:11:39;;;;;;;2.95;1.20;;;21.30;71.00;;;;;;5090943;28;20052;-73
2023/05/23 07:14:08;;;;;;;4.22;1.30;;;21.30;70.40;;;;;;5091781;28;20059;-73
2023/05/23 07:16:35;;;;;;;3.22;1.90;;;21.30;70.50;;;;;;5087765;28;20048;-73
2023/05/23 07:19:04;;;;;;;2.80;1.10;;;21.30;70.40;;;;;;5085670;28;20036;-73
2023/05/23 07:21:31;;;;;;;3.00;1.00;;;21.30;70.40;;;;;;5086247;28;20043;-73
2023/05/23 07:23:58;;;;;;;3.08;1.95;;;21.30;70.40;;;;;;5085719;28;20067;-73
2023/05/23 07:26:26;;;;;;;2.83;1.10;;;21.30;70.40;;;;;;5088959;28;20503;-73
2023/05/23 07:28:53;;;;;;;3.45;1.88;;;21.30;70.30;;;;;;5085630;28;20070;-73
2023/05/23 07:31:21;;;;;;;2.83;1.95;;;21.30;70.30;;;;;;5084058;28;20050;-73
2023/05/23 07:33:48;;;;;;;3.30;1.70;;;21.30;70.30;;;;;;5086241;28;20062;-73
2023/05/23 07:36:16;;;;;;;3.45;1.98;;;21.30;70.30;;;;;;5089044;28;20059;-74
2023/05/23 07:38:43;;;;;;;4.05;2.25;;;21.40;70.30;;;;;;5091237;28;20040;-73
2023/05/23 07:41:10;;;;;;;2.90;1.67;;;21.30;70.30;;;;;;5085651;28;20048;-74
2023/05/23 07:43:37;;;;;;;2.95;2.15;;;21.40;70.30;;;;;;5086923;28;20116;-73
2023/05/23 07:46:04;;;;;;;3.60;2.03;;;21.30;70.80;;;;;;5088360;28;20068;-73
2023/05/23 07:48:33;;;;;;;3.70;2.20;;;21.40;70.30;;;;;;5080081;28;20044;-73
2023/05/23 07:51:00;;;;;;;2.47;1.67;;;21.40;70.30;;;;;;5088055;28;20055;-73
2023/05/23 07:53:27;;;;;;;3.28;1.42;;;21.40;70.30;;;;;;5083319;28;20055;-73
2023/05/23 07:55:54;;;;;;;3.17;1.13;;;21.40;70.30;;;;;;5087949;28;20059;-73
2023/05/23 07:58:22;;;;;;;2.83;1.00;;;21.40;70.20;;;;;;5084292;28;20060;-73
2023/05/23 08:00:49;;;;;;;5.97;1.92;;;21.40;70.20;;;;;;5085677;28;20048;-73
2023/05/23 08:03:17;;;;;;;3.15;1.20;;;21.40;70.20;;;;;;5086810;28;20060;-73
2023/05/23 08:05:46;;;;;;;3.92;1.00;;;21.40;70.20;;;;;;5090350;28;20043;-73
2023/05/23 08:08:13;;;;;;;3.60;1.25;;;21.40;70.20;;;;;;5081584;28;20048;-73
2023/05/23 08:10:40;;;;;;;3.78;1.20;;;21.40;70.20;;;;;;5085583;28;20056;-74
2023/05/23 08:13:09;;;;;;;4.13;1.83;;;21.40;70.20;;;;;;5086651;28;20412;-73
2023/05/23 08:15:36;;;;;;;2.88;1.10;;;21.40;70.20;;;;;;5081365;28;20063;-73
2023/05/23 08:18:04;;;;;;;3.80;1.88;;;21.40;70.10;;;;;;5079489;28;20481;-73
2023/05/23 08:20:31;;;;;;;4.00;1.95;;;21.40;70.10;;;;;;5088406;28;20044;-74
2023/05/23 08:23:01;;;;;;;3.50;1.55;;;21.40;70.10;;;;;;5080708;28;20048;-73
2023/05/23 08:25:29;;;;;;;3.28;1.60;;;21.40;70.00;;;;;;5093539;28;20550;-74
2023/05/23 08:27:57;;;;;;;3.25;1.02;;;21.40;70.00;;;;;;5085850;28;20049;-73
2023/05/23 08:30:24;;;;;;;3.50;1.77;;;21.40;70.00;;;;;;5089599;28;20094;-73
2023/05/23 08:32:52;;;;;;;3.20;1.58;;;21.40;70.00;;;;;;5085457;28;20066;-73
2023/05/23 08:35:19;;;;;;;2.17;0.90;;;21.40;70.00;;;;;;5082196;28;20056;-73
2023/05/23 08:37:47;;;;;;;2.53;1.00;;;21.40;69.90;;;;;;5084604;28;20492;-73
2023/05/23 08:40:19;;;;;;;2.65;1.38;;;21.50;70.00;;;;;;5088415;28;20067;-73
2023/05/23 08:42:47;;;;;;;3.28;1.80;;;21.50;70.00;;;;;;5084674;28;20145;-73
2023/05/23 08:45:14;;;;;;;2.15;1.00;;;21.50;70.00;;;;;;5083202;28;20066;-73
2023/05/23 08:47:43;;;;;;;4.32;1.60;;;21.50;70.00;;;;;;5089613;28;20036;-73
2023/05/23 08:50:13;;;;;;;3.17;1.10;;;21.50;70.00;;;;;;5086095;28;20474;-73
2023/05/23 08:52:44;;;;;;;3.58;1.83;;;21.50;70.00;;;;;;5088132;28;20081;-73
2023/05/23 08:55:12;;;;;;;3.15;0.75;;;21.50;70.00;;;;;;5081896;28;20048;-73
2023/05/23 08:57:42;;;;;;;3.08;1.15;;;21.50;69.90;;;;;;5087890;28;20052;-73
2023/05/23 09:00:13;;;;;;;2.58;1.02;;;21.50;69.90;;;;;;5087269;28;20105;-73
2023/05/23 09:02:42;;;;;;;3.70;0.90;;;21.50;69.90;;;;;;5081425;28;20056;-73
2023/05/23 09:05:09;;;;;;;4.47;1.00;;;21.50;69.80;;;;;;5089185;28;20079;-73
2023/05/23 09:07:37;;;;;;;2.95;1.85;;;21.50;69.80;;;;;;5080377;28;20052;-73
2023/05/23 09:10:05;;;;;;;3.47;0.73;;;21.50;69.80;;;;;;5079194;28;20607;-73
2023/05/23 09:12:33;;;;;;;3.05;1.60;;;21.60;69.80;;;;;;5104199;28;20055;-73
2023/05/23 09:15:01;;;;;;;3.13;1.00;;;21.50;69.70;;;;;;5086493;28;20071;-73
2023/05/23 09:17:28;;;;;;;3.10;0.90;;;21.50;69.70;;;;;;5088284;28;20047;-73
2023/05/23 09:19:55;;;;;;;1.92;0.70;;;21.50;69.70;;;;;;5087508;28;20055;-73
2023/05/23 09:22:25;;;;;;;2.35;1.00;;;21.50;69.70;;;;;;5077019;28;20065;-73
2023/05/23 09:24:53;;;;;;;2.88;1.13;;;21.50;69.60;;;;;;5085528;28;20048;-73
2023/05/23 09:27:20;;;;;;;3.65;1.25;;;21.60;69.70;;;;;;5083373;28;20056;-73
2023/05/23 09:29:47;;;;;;;2.40;0.82;;;21.60;69.70;;;;;;5084689;28;20071;-73
2023/05/23 09:32:16;;;;;;;2.80;1.05;;;21.60;69.70;;;;;;5086723;28;20481;-73
2023/05/23 09:34:56;;;;;;;4.13;0.90;;;21.60;69.60;;;;;;5075372;28;20055;-73
2023/05/23 09:37:25;;;;;;;3.92;2.00;;;21.60;69.60;;;;;;5080443;28;20541;-73
2023/05/23 09:39:52;;;;;;;2.58;0.85;;;21.60;69.70;;;;;;5081845;28;20389;-73
2023/05/23 09:42:22;;;;;;;2.42;0.95;;;21.60;69.60;;;;;;5084350;28;20480;-73
2023/05/23 09:44:49;;;;;;;3.45;1.23;;;21.60;69.60;;;;;;5082482;28;20097;-73
2023/05/23 09:47:17;;;;;;;4.13;0.90;;;21.60;69.60;;;;;;5088221;28;20118;-73
2023/05/23 09:49:47;;;;;;;3.35;2.20;;;21.60;69.60;;;;;;5079321;28;20053;-74
2023/05/23 09:52:14;;;;;;;3.67;1.75;;;21.60;69.50;;;;;;5083558;28;20048;-72
2023/05/23 09:54:41;;;;;;;3.75;1.30;;;21.60;69.50;;;;;;5087236;28;20422;-73
2023/05/23 09:57:11;;;;;;;2.38;1.45;;;21.60;69.50;;;;;;5086310;28;20110;-73
2023/05/23 09:59:40;;;;;;;3.83;0.80;;;21.60;69.50;;;;;;5087933;28;20044;-73
2023/05/23 10:02:11;;;;;;;3.08;0.95;;;21.60;69.50;;;;;;5081581;28;20048;-73
2023/05/23 10:04:40;;;;;;;2.28;0.70;;;21.60;69.50;;;;;;5087731;28;20493;-73
2023/05/23 10:07:16;;;;;;;2.30;0.70;;;21.60;69.50;;;;;;5082345;28;20098;-73
2023/05/23 10:09:51;;;;;;;2.90;1.77;;;21.60;69.50;;;;;;5086208;28;20055;-73
2023/05/23 10:12:39;;;;;;;2.85;0.60;;;21.60;69.40;;;;;;5077967;28;20044;-73
2023/05/23 10:15:09;;;;;;;2.97;0.90;;;21.70;69.50;;;;;;5079863;28;20515;-73
2023/05/23 10:17:46;;;;;;;2.40;0.85;;;21.70;69.40;;;;;;5080758;28;20098;-73
2023/05/23 10:20:16;;;;;;;2.78;0.95;;;21.60;69.40;;;;;;5081988;28;20044;-73
2023/05/23 10:22:44;;;;;;;4.07;1.73;;;21.70;69.40;;;;;;5087015;28;20041;-73
2023/05/23 10:25:12;;;;;;;3.10;1.65;;;21.70;69.40;;;;;;5087574;28;20048;-73
2023/05/23 10:27:40;;;;;;;2.83;0.80;;;21.60;69.40;;;;;;5084681;28;20130;-73
2023/05/23 10:30:08;;;;;;;4.97;1.83;;;21.70;69.40;;;;;;5085905;28;20523;-73
2023/05/23 10:32:38;;;;;;;3.88;0.88;;;21.70;69.40;;;;;;5086084;28;20131;-73
2023/05/23 10:35:13;;;;;;;4.03;1.00;;;21.70;69.30;;;;;;5086212;28;20051;-73
2023/05/23 10:37:48;;;;;;;4.20;1.00;;;21.70;69.30;;;;;;5086052;28;20059;-73
2023/05/23 10:40:24;;;;;;;3.17;1.40;;;21.70;69.30;;;;;;5082404;28;20071;-73
2023/05/23 10:42:56;;;;;;;2.67;1.83;;;21.70;69.30;;;;;;5082588;28;20148;-72
2023/05/23 10:45:24;;;;;;;3.42;1.52;;;21.70;69.30;;;;;;5105431;28;20060;-72
2023/05/23 10:47:52;;;;;;;2.38;1.23;;;21.70;69.30;;;;;;5085843;28;20044;-72
2023/05/23 10:50:32;;;;;;;3.20;0.70;;;21.70;69.30;;;;;;5084504;28;20048;-73
2023/05/23 10:53:03;;;;;;;2.80;0.85;;;21.70;69.30;;;;;;5082332;28;20071;-73
2023/05/23 10:55:32;;;;;;;2.85;1.42;;;21.70;69.30;;;;;;5091542;28;20435;-73
2023/05/23 10:58:15;;;;;;;4.25;1.80;;;21.70;69.30;;;;;;5082886;28;20068;-73
2023/05/23 11:00:53;;;;;;;2.60;0.77;;;21.70;69.30;;;;;;5083675;28;20473;-73
2023/05/23 11:03:32;;;;;;;3.17;1.33;;;21.70;69.20;;;;;;5086458;28;20052;-73
2023/05/23 11:06:00;;;;;;;2.15;1.30;;;21.70;69.30;;;;;;5090298;28;20129;-73
2023/05/23 11:08:36;;;;;;;2.70;1.30;;;21.80;69.30;;;;;;5087931;28;20052;-73
2023/05/23 11:11:04;;;;;;;2.70;0.88;;;21.70;69.30;;;;;;5091423;28;20055;-73
2023/05/23 11:13:55;;;;;;;3.42;1.77;;;21.70;69.30;;;;;;5081406;28;20102;-73
2023/05/23 11:16:26;;;;;;;2.92;1.30;;;21.80;69.30;;;;;;5091376;28;20496;-73
2023/05/23 11:18:58;;;;;;;4.88;1.60;;;21.80;69.20;;;;;;5088547;28;20048;-73
2023/05/23 11:21:25;;;;;;;3.42;0.98;;;21.70;69.20;;;;;;5091300;28;21890;-73
2023/05/23 11:23:55;;;;;;;4.13;1.00;;;21.80;69.20;;;;;;5090316;28;20040;-73
2023/05/23 11:26:32;;;;;;;3.85;0.65;;;21.80;69.20;;;;;;5085921;28;20050;-73
2023/05/23 11:29:02;;;;;;;3.53;1.45;;;21.80;69.20;;;;;;5081901;28;20080;-73
2023/05/23 11:31:29;;;;;;;3.45;1.60;;;21.80;69.20;;;;;;5083879;28;20044;-73
2023/05/23 11:33:56;;;;;;;2.90;1.90;;;21.80;69.10;;;;;;5085776;28;20083;-72
2023/05/23 11:36:23;;;;;;;2.95;0.98;;;21.80;69.20;;;;;;5089223;28;20115;-73
2023/05/23 11:38:52;;;;;;;3.67;1.70;;;21.80;69.10;;;;;;5089662;28;20525;-73
2023/05/23 11:41:20;;;;;;;2.35;1.15;;;21.80;69.10;;;;;;5080831;28;20409;-73
2023/05/23 11:43:51;;;;;;;3.47;1.75;;;21.80;69.10;;;;;;5088257;28;20054;-73
2023/05/23 11:46:18;;;;;;;2.65;1.45;;;21.80;69.10;;;;;;5089747;28;20101;-73
2023/05/23 11:48:45;;;;;;;2.42;1.08;;;21.80;69.10;;;;;;5089634;28;20090;-73
2023/05/23 11:51:13;;;;;;;2.05;1.27;;;21.80;69.10;;;;;;5088261;28;20052;-73
2023/05/23 11:53:40;;;;;;;3.50;1.85;;;21.80;69.10;;;;;;5090166;28;20059;-73
2023/05/23 11:56:07;;;;;;;2.92;1.83;;;21.80;69.10;;;;;;5089104;28;20048;-73
2023/05/23 11:58:37;;;;;;;2.30;1.13;;;21.80;69.00;;;;;;5083769;28;20573;-73
2023/05/23 12:01:06;;;;;;;3.38;1.55;;;21.90;69.10;;;;;;5084739;28;20408;-73
2023/05/23 12:03:34;;;;;;;3.88;1.20;;;21.90;69.10;;;;;;5089869;28;20068;-72
2023/05/23 12:06:01;;;;;;;4.80;1.63;;;21.90;69.00;;;;;;5084890;28;20587;-73
2023/05/23 12:08:29;;;;;;;4.03;1.65;;;21.90;69.00;;;;;;5087692;28;20136;-73
2023/05/23 12:10:58;;;;;;;3.70;1.33;;;21.90;69.00;;;;;;5088670;28;20048;-73
2023/05/23 12:13:27;;;;;;;2.42;1.40;;;21.90;68.90;;;;;;5085799;28;20048;-73
2023/05/23 12:15:57;;;;;;;2.92;1.65;;;21.90;68.90;;;;;;5088654;28;20040;-73
2023/05/23 12:18:27;;;;;;;3.08;1.73;;;21.90;68.90;;;;;;5075955;28;20040;-73
2023/05/23 12:20:54;;;;;;;3.70;0.90;;;21.90;68.80;;;;;;5088154;28;20044;-73
2023/05/23 12:23:22;;;;;;;2.47;0.75;;;21.90;68.80;;;;;;5088384;28;20101;-73
2023/05/23 12:25:53;;;;;;;2.53;1.00;;;21.90;68.80;;;;;;5087190;28;20060;-73
2023/05/23 12:28:20;;;;;;;3.28;1.45;;;22.00;68.80;;;;;;5087281;28;20073;-73
2023/05/23 12:30:47;;;;;;;2.35;1.30;;;22.00;68.70;;;;;;5078526;28;20052;-73
2023/05/23 12:33:19;;;;;;;2.35;1.33;;;22.00;68.70;;;;;;5082513;28;20048;-73
2023/05/23 12:35:46;;;;;;;2.53;0.60;;;22.00;68.70;;;;;;5089302;28;20070;-73
2023/05/23 12:38:16;;;;;;;2.92;0.60;;;22.00;68.60;;;;;;5081039;28;20055;-74
2023/05/23 12:40:44;;;;;;;1.73;0.73;;;22.00;68.60;;;;;;5081316;28;20055;-73
2023/05/23 12:43:11;;;;;;;2.38;0.63;;;22.00;68.60;;;;;;5088045;28;20036;-73
2023/05/23 12:45:38;;;;;;;4.43;1.20;;;22.10;68.60;;;;;;5089668;28;20454;-73
2023/05/23 12:48:07;;;;;;;2.42;0.85;;;22.10;68.60;;;;;;5082305;28;20047;-73
2023/05/23 12:50:36;;;;;;;3.80;0.60;;;22.10;68.50;;;;;;5083036;28;20048;-73
2023/05/23 12:53:03;;;;;;;3.08;1.38;;;22.10;68.50;;;;;;5083769;28;20492;-73
2023/05/23 12:55:30;;;;;;;2.88;0.68;;;22.10;68.50;;;;;;5085730;28;20059;-73